createdAt,value
2019-06-07T00:01:48.895Z,8.70
2019-06-07T00:04:21.283Z,7.70
2019-06-07T00:06:49.494Z,8.97
2019-06-07T00:09:22.604Z,9.90
2019-06-07T00:11:50.394Z,9.43
2019-06-07T00:14:21.158Z,9.27
2019-06-07T00:16:50.981Z,8.97
2019-06-07T00:19:20.553Z,8.47
2019-06-07T00:24:21.845Z,9.23
2019-06-07T00:26:58.412Z,9.27
2019-06-07T00:29:22.758Z,9.50
2019-06-07T00:31:52.380Z,9.60
2019-06-07T00:34:23.018Z,9.67
2019-06-07T00:36:53.338Z,8.57
2019-06-07T00:39:25.668Z,8.50
2019-06-07T00:41:53.884Z,9.20
2019-06-07T00:44:23.632Z,9.40
2019-06-07T00:46:52.996Z,9.27
2019-06-07T00:49:39.990Z,9.60
2019-06-07T00:51:54.129Z,10.37
2019-06-07T00:54:25.062Z,9.17
2019-06-07T00:56:54.912Z,8.80
2019-06-07T00:59:29.193Z,9.40
2019-06-07T01:01:55.910Z,10.23
2019-06-07T01:04:26.891Z,9.77
2019-06-07T01:06:56.826Z,9.30
2019-06-07T01:09:26.124Z,9.37
2019-06-07T01:11:55.730Z,9.30
2019-06-07T01:14:28.411Z,9.37
2019-06-07T01:17:07.059Z,9.80
2019-06-07T01:19:28.065Z,8.87
2019-06-07T01:21:57.780Z,9.77
2019-06-07T01:24:28.049Z,9.60
2019-06-07T01:26:57.744Z,9.50
2019-06-07T01:29:30.345Z,10.67
2019-06-07T01:31:58.362Z,9.67
2019-06-07T01:34:28.918Z,10.30
2019-06-07T01:36:58.300Z,9.90
2019-06-07T01:39:30.985Z,9.90
2019-06-07T01:41:58.571Z,9.50
2019-06-07T01:44:28.673Z,9.70
2019-06-07T01:46:58.831Z,10.03
2019-06-07T01:49:29.639Z,10.00
2019-06-07T01:51:59.338Z,10.27
2019-06-07T01:54:58.021Z,9.93
2019-06-07T01:56:59.587Z,10.50
2019-06-07T01:59:31.591Z,9.50
2019-06-07T02:01:59.909Z,8.77
2019-06-07T02:04:32.597Z,10.10
2019-06-07T02:07:00.174Z,10.23
2019-06-07T02:09:31.743Z,10.17
2019-06-07T02:12:00.434Z,9.60
2019-06-07T02:14:32.882Z,11.20
2019-06-07T02:17:00.732Z,12.10
2019-06-07T02:19:31.645Z,11.20
2019-06-07T02:22:01.006Z,10.47
2019-06-07T02:24:35.130Z,12.37
2019-06-07T02:27:01.252Z,10.57
2019-06-07T02:29:33.368Z,11.37
2019-06-07T02:32:01.512Z,10.33
2019-06-07T02:34:37.872Z,11.57
2019-06-07T02:37:02.133Z,11.10
2019-06-07T02:39:37.619Z,11.17
2019-06-07T02:42:02.759Z,10.00
2019-06-07T02:44:38.561Z,11.90
2019-06-07T02:47:03.767Z,10.03
2019-06-07T02:49:39.779Z,11.80
2019-06-07T02:52:04.727Z,11.27
2019-06-07T02:54:39.537Z,10.87
2019-06-07T02:57:06.093Z,11.67
2019-06-07T03:00:02.892Z,10.90
2019-06-07T03:02:06.693Z,11.70
2019-06-07T03:04:41.751Z,10.27
2019-06-07T03:07:07.693Z,11.97
2019-06-07T03:09:39.818Z,11.60
2019-06-07T03:12:10.941Z,12.37
2019-06-07T03:14:41.405Z,11.43
2019-06-07T03:17:21.776Z,11.33
2019-06-07T03:19:54.604Z,11.70
2019-06-07T03:22:23.888Z,11.03
2019-06-07T03:24:56.246Z,11.33
2019-06-07T03:27:41.325Z,11.97
2019-06-07T03:29:57.412Z,13.00
2019-06-07T03:32:30.293Z,12.87
2019-06-07T03:34:58.369Z,12.70
2019-06-07T03:37:29.956Z,12.47
2019-06-07T03:39:58.648Z,12.23
2019-06-07T03:42:29.144Z,12.20
2019-06-07T03:44:58.556Z,11.83
2019-06-07T03:47:30.589Z,12.83
2019-06-07T03:49:58.779Z,12.17
2019-06-07T03:52:29.862Z,11.63
2019-06-07T03:54:59.071Z,12.43
2019-06-07T03:57:29.135Z,11.63
2019-06-07T03:59:59.414Z,12.27
2019-06-07T04:02:30.359Z,11.80
2019-06-07T04:04:59.656Z,11.63
2019-06-07T04:07:30.640Z,11.30
2019-06-07T04:09:59.943Z,12.30
2019-06-07T04:12:31.961Z,12.87
2019-06-07T04:15:00.232Z,13.07
2019-06-07T04:17:31.163Z,11.43
2019-06-07T04:20:00.518Z,11.90
2019-06-07T04:22:31.404Z,12.67
2019-06-07T04:25:03.050Z,14.10
2019-06-07T04:27:33.019Z,12.17
2019-06-07T04:30:07.894Z,12.30
2019-06-07T04:32:35.934Z,12.23
2019-06-07T04:35:06.300Z,11.13
2019-06-07T04:37:39.694Z,12.60
2019-06-07T04:40:08.982Z,11.90
2019-06-07T04:42:45.021Z,12.57
2019-06-07T04:45:32.530Z,12.60
2019-06-07T04:47:43.403Z,12.70
2019-06-07T04:50:13.121Z,13.63
2019-06-07T04:52:45.572Z,13.10
2019-06-07T04:55:13.808Z,13.80
2019-06-07T04:57:43.503Z,12.33
2019-06-07T05:00:46.658Z,13.97
2019-06-07T05:02:44.644Z,12.60
2019-06-07T05:05:13.922Z,13.97
2019-06-07T05:07:46.214Z,12.90
2019-06-07T05:10:14.397Z,12.30
2019-06-07T05:12:44.468Z,11.67
2019-06-07T05:15:13.976Z,13.80
2019-06-07T05:17:45.195Z,13.30
2019-06-07T05:20:16.070Z,11.40
2019-06-07T05:22:45.670Z,11.80
2019-06-07T05:25:15.685Z,11.83
2019-06-07T05:27:46.782Z,11.43
2019-06-07T05:33:04.667Z,10.70
2019-06-07T05:35:35.683Z,12.30
2019-06-07T05:38:05.946Z,10.60
2019-06-07T05:40:48.099Z,10.47
2019-06-07T05:43:24.208Z,11.40
2019-06-07T05:45:53.486Z,10.67
2019-06-07T05:48:23.014Z,10.37
2019-06-07T05:50:57.035Z,10.30
2019-06-07T05:53:23.358Z,10.50
2019-06-07T05:55:52.646Z,9.80
2019-06-07T05:58:21.925Z,10.00
2019-06-07T06:00:51.273Z,10.03
2019-06-07T06:03:20.817Z,9.97
2019-06-07T06:05:54.887Z,9.80
2019-06-07T06:08:21.130Z,9.10
2019-06-07T06:10:50.372Z,11.53
2019-06-07T06:13:19.954Z,9.47
2019-06-07T06:16:00.430Z,10.40
2019-06-07T06:18:20.813Z,10.90
2019-06-07T06:21:11.759Z,8.17
2019-06-07T06:23:21.419Z,9.77
2019-06-07T06:25:56.512Z,8.00
2019-06-07T06:28:21.687Z,8.20
2019-06-07T06:30:51.304Z,6.63
2019-06-07T06:33:33.787Z,8.20
2019-06-07T06:35:52.300Z,8.00
2019-06-07T06:38:21.519Z,7.67
2019-06-07T06:41:11.720Z,6.70
2019-06-07T06:43:22.409Z,6.87
2019-06-07T06:45:51.681Z,6.70
2019-06-07T06:48:21.344Z,7.10
2019-06-07T06:50:52.663Z,8.50
2019-06-07T06:53:22.077Z,7.10
2019-06-07T06:55:51.574Z,7.00
2019-06-07T06:58:21.190Z,6.40
2019-06-07T07:01:05.351Z,5.70
2019-06-07T07:05:56.444Z,6.30
2019-06-07T07:08:25.786Z,6.30
2019-06-07T07:10:55.341Z,6.50
2019-06-07T07:13:24.975Z,6.50
2019-06-07T07:15:58.117Z,7.00
2019-06-07T07:18:26.247Z,6.40
2019-06-07T07:20:57.613Z,6.80
2019-06-07T07:23:27.001Z,6.13
2019-06-07T07:25:59.404Z,5.30
2019-06-07T07:28:27.337Z,6.13
2019-06-07T07:30:57.851Z,6.73
2019-06-07T07:34:19.799Z,5.17
2019-06-07T07:36:35.296Z,6.73
2019-06-07T07:38:29.183Z,5.90
2019-06-07T07:41:12.246Z,5.80
2019-06-07T07:43:29.450Z,6.37
2019-06-07T07:46:03.237Z,6.60
2019-06-07T07:48:30.495Z,6.33
2019-06-07T07:51:01.242Z,6.53
2019-06-07T07:53:47.858Z,5.90
2019-06-07T07:56:02.325Z,5.20
2019-06-07T07:58:32.043Z,5.50
2019-06-07T08:01:10.106Z,5.83
2019-06-07T08:03:32.324Z,5.57
2019-06-07T08:06:01.890Z,4.63
2019-06-07T08:08:31.499Z,3.93
2019-06-07T08:11:02.162Z,4.50
2019-06-07T08:13:32.135Z,4.63
2019-06-07T08:16:09.118Z,5.40
2019-06-07T08:18:32.700Z,4.50
2019-06-07T08:21:21.519Z,5.13
2019-06-07T08:23:33.324Z,3.80
2019-06-07T08:26:02.601Z,4.90
2019-06-07T08:28:31.876Z,4.80
2019-06-07T08:31:06.686Z,3.60
2019-06-07T08:33:32.147Z,3.40
2019-06-07T08:36:19.574Z,4.33
2019-06-07T08:38:46.837Z,3.67
2019-06-07T08:41:11.509Z,3.50
2019-06-07T08:43:34.403Z,4.03
2019-06-07T08:46:07.273Z,3.53
2019-06-07T08:48:34.813Z,3.80
2019-06-07T08:51:08.181Z,3.10
2019-06-07T08:53:35.222Z,2.93
2019-06-07T08:56:09.205Z,3.77
2019-06-07T08:58:35.568Z,3.90
2019-06-07T09:01:08.481Z,3.00
2019-06-07T09:03:35.854Z,3.30
2019-06-07T09:06:16.386Z,2.50
2019-06-07T09:08:36.131Z,2.90
2019-06-07T09:11:10.898Z,3.10
2019-06-07T09:13:36.481Z,2.60
2019-06-07T09:16:08.631Z,2.43
2019-06-07T09:18:43.724Z,2.70
2019-06-07T09:21:09.795Z,2.93
2019-06-07T09:23:38.985Z,2.80
2019-06-07T09:26:17.583Z,3.00
2019-06-07T09:28:39.600Z,2.77
2019-06-07T09:31:11.940Z,2.20
2019-06-07T09:33:40.136Z,2.47
2019-06-07T09:36:12.987Z,1.90
2019-06-07T09:38:40.881Z,2.47
2019-06-07T09:41:10.189Z,2.60
2019-06-07T09:44:01.348Z,1.97
2019-06-07T09:46:14.861Z,2.40
2019-06-07T09:51:19.863Z,2.47
2019-06-07T09:53:44.834Z,1.97
2019-06-07T09:56:14.437Z,2.10
2019-06-07T09:58:53.634Z,2.77
2019-06-07T10:01:15.048Z,2.50
2019-06-07T10:03:44.601Z,3.00
2019-06-07T10:06:14.097Z,2.30
2019-06-07T10:10:08.293Z,2.63
2019-06-07T10:11:16.853Z,2.60
2019-06-07T10:13:46.131Z,2.90
2019-06-07T10:16:15.398Z,2.80
2019-06-07T10:18:45.007Z,2.53
2019-06-07T10:21:15.457Z,3.23
2019-06-07T10:23:44.969Z,3.20
2019-06-07T10:26:14.242Z,3.23
2019-06-07T10:28:43.524Z,2.43
2019-06-07T10:31:12.798Z,2.90
2019-06-07T10:33:42.148Z,2.97
2019-06-07T10:36:11.434Z,2.53
2019-06-07T10:38:41.055Z,2.90
2019-06-07T10:41:11.102Z,2.97
2019-06-07T10:43:40.475Z,2.70
2019-06-07T10:46:10.156Z,2.40
2019-06-07T10:48:40.506Z,2.60
2019-06-07T10:51:12.435Z,2.60
2019-06-07T10:53:41.463Z,3.40
2019-06-07T10:56:11.159Z,2.70
2019-06-07T10:58:40.419Z,3.17
2019-06-07T11:01:09.690Z,2.90
2019-06-07T11:03:39.274Z,3.60
2019-06-07T11:06:10.113Z,2.90
2019-06-07T11:08:39.411Z,2.97
2019-06-07T11:11:08.675Z,2.93
2019-06-07T11:13:37.942Z,2.93
2019-06-07T11:16:08.716Z,3.23
2019-06-07T11:18:38.071Z,3.10
2019-06-07T11:21:07.937Z,2.93
2019-06-07T11:23:37.581Z,2.97
2019-06-07T11:26:08.244Z,3.10
2019-06-07T11:28:37.911Z,2.80
2019-06-07T11:31:08.427Z,3.17
2019-06-07T11:33:38.140Z,3.13
2019-06-07T11:36:08.472Z,3.70
2019-06-07T11:38:37.741Z,3.57
2019-06-07T11:41:07.410Z,2.77
2019-06-07T11:43:36.756Z,3.20
2019-06-07T11:46:06.730Z,2.83
2019-06-07T11:48:36.080Z,3.50
2019-06-07T11:51:06.656Z,3.50
2019-06-07T11:53:36.449Z,3.00
2019-06-07T11:56:05.729Z,2.83
2019-06-07T11:58:34.994Z,3.17
2019-06-07T12:01:05.073Z,3.70
2019-06-07T12:03:34.684Z,3.40
2019-06-07T12:06:04.199Z,3.30
2019-06-07T12:08:33.471Z,3.10
2019-06-07T12:11:02.739Z,3.03
2019-06-07T12:13:32.013Z,2.90
2019-06-07T12:16:01.346Z,3.40
2019-06-07T12:18:30.560Z,2.93
2019-06-07T12:20:59.839Z,3.20
2019-06-07T12:23:29.884Z,3.47
2019-06-07T12:25:59.157Z,3.20
2019-06-07T12:28:28.436Z,3.10
2019-06-07T12:30:57.757Z,3.90
2019-06-07T12:33:26.991Z,3.40
2019-06-07T12:35:56.260Z,3.20
2019-06-07T12:38:25.549Z,3.70
2019-06-07T12:40:57.824Z,3.20
2019-06-07T12:43:26.595Z,3.40
2019-06-07T12:45:55.884Z,2.90
2019-06-07T12:48:26.134Z,3.70
2019-06-07T12:50:55.516Z,3.80
2019-06-07T12:53:27.945Z,3.07
2019-06-07T12:55:59.879Z,3.50
2019-06-07T12:58:33.856Z,3.77
2019-06-07T13:00:59.876Z,3.43
2019-06-07T13:03:29.564Z,3.63
2019-06-07T13:05:58.833Z,3.37
2019-06-07T13:08:28.318Z,3.57
2019-06-07T13:11:13.640Z,2.90
2019-06-07T13:13:28.746Z,3.03
2019-06-07T13:15:58.021Z,2.53
2019-06-07T13:18:28.485Z,4.50
2019-06-07T13:20:57.858Z,3.30
2019-06-07T13:23:28.755Z,2.70
2019-06-07T13:25:58.295Z,3.23
2019-06-07T13:28:28.834Z,3.30
2019-06-07T13:30:58.311Z,3.03
2019-06-07T13:33:34.054Z,2.73
2019-06-07T13:35:58.563Z,3.50
2019-06-07T13:38:29.102Z,3.07
2019-06-07T13:40:58.456Z,2.87
2019-06-07T13:43:28.353Z,3.00
2019-06-07T13:45:57.670Z,3.77
2019-06-07T13:48:27.845Z,3.07
2019-06-07T13:50:57.396Z,2.80
2019-06-07T13:53:26.652Z,2.87
2019-06-07T13:55:55.919Z,3.33
2019-06-07T13:58:26.415Z,3.00
2019-06-07T14:00:55.915Z,2.87
2019-06-07T14:03:29.333Z,2.83
2019-06-07T14:05:56.208Z,3.30
2019-06-07T14:08:25.538Z,2.80
2019-06-07T14:10:55.124Z,3.10
2019-06-07T14:13:25.686Z,2.80
2019-06-07T14:15:55.140Z,2.10
2019-06-07T14:18:24.670Z,2.70
2019-06-07T14:20:54.271Z,2.80
2019-06-07T14:23:43.731Z,2.87
2019-06-07T14:25:54.870Z,2.40
2019-06-07T14:28:27.105Z,2.33
2019-06-07T14:30:55.162Z,3.00
2019-06-07T14:33:26.908Z,2.67
2019-06-07T14:35:55.983Z,2.50
2019-06-07T14:38:27.319Z,2.37
2019-06-07T14:40:56.749Z,2.50
2019-06-07T14:43:27.466Z,2.20
2019-06-07T14:45:56.865Z,2.30
2019-06-07T14:48:26.134Z,2.37
2019-06-07T14:50:55.405Z,2.30
2019-06-07T14:53:24.680Z,2.80
2019-06-07T14:55:53.954Z,2.20
2019-06-07T14:58:23.225Z,2.20
2019-06-07T15:00:52.570Z,2.30
2019-06-07T15:03:21.847Z,2.20
2019-06-07T15:05:51.123Z,2.47
2019-06-07T15:08:20.392Z,2.50
2019-06-07T15:10:49.669Z,2.37
2019-06-07T15:13:18.942Z,2.53
2019-06-07T15:15:48.215Z,2.40
2019-06-07T15:18:17.811Z,2.53
2019-06-07T15:20:47.085Z,2.87
2019-06-07T15:23:16.354Z,2.60
2019-06-07T15:25:45.622Z,3.03
2019-06-07T15:28:15.215Z,2.40
2019-06-07T15:30:44.824Z,2.20
2019-06-07T15:33:14.092Z,2.23
2019-06-07T15:35:43.368Z,2.23
2019-06-07T15:38:12.937Z,2.40
2019-06-07T15:40:42.457Z,2.77
2019-06-07T15:43:12.149Z,2.50
2019-06-07T15:45:41.419Z,2.30
2019-06-07T15:48:10.933Z,2.27
2019-06-07T15:50:40.592Z,2.37
2019-06-07T15:53:09.812Z,2.53
2019-06-07T15:55:43.893Z,2.63
2019-06-07T15:58:10.093Z,2.42
2019-06-07T16:00:41.040Z,1.82
2019-06-07T16:03:10.647Z,2.90
2019-06-07T16:05:40.531Z,2.20
2019-06-07T16:08:09.778Z,2.22
2019-06-07T16:10:39.051Z,2.17
2019-06-07T16:13:08.675Z,2.50
2019-06-07T16:15:39.145Z,2.50
2019-06-07T16:18:08.439Z,2.25
2019-06-07T16:20:39.445Z,2.67
2019-06-07T16:23:08.865Z,2.45
2019-06-07T16:25:38.459Z,2.27
2019-06-07T16:28:07.735Z,2.40
2019-06-07T16:30:38.467Z,3.00
2019-06-07T16:33:08.091Z,3.00
2019-06-07T16:35:39.004Z,3.03
2019-06-07T16:38:08.435Z,3.70
2019-06-07T16:40:38.420Z,3.70
2019-06-07T16:43:16.574Z,3.10
2019-06-07T16:45:39.052Z,3.30
2019-06-07T16:48:08.326Z,3.60
2019-06-07T16:50:38.776Z,3.60
2019-06-07T16:53:08.443Z,3.87
2019-06-07T16:55:38.671Z,3.77
2019-06-07T16:58:08.368Z,5.10
2019-06-07T17:00:38.676Z,4.07
2019-06-07T17:03:08.445Z,4.57
2019-06-07T17:05:37.818Z,3.60
2019-06-07T17:08:07.132Z,3.47
2019-06-07T17:10:36.405Z,2.60
2019-06-07T17:13:05.813Z,1.87
2019-06-07T17:15:35.424Z,2.30
2019-06-07T17:18:04.970Z,2.33
2019-06-07T17:20:34.482Z,2.37
2019-06-07T17:23:03.824Z,2.30
2019-06-07T17:25:33.109Z,2.00
2019-06-07T17:28:02.461Z,2.23
2019-06-07T17:30:31.816Z,1.60
2019-06-07T17:33:01.083Z,1.50
2019-06-07T17:35:30.358Z,1.30
2019-06-07T17:37:59.632Z,2.10
2019-06-07T17:40:28.968Z,1.23
2019-06-07T17:42:58.241Z,1.10
2019-06-07T17:45:27.507Z,0.90
2019-06-07T17:47:56.775Z,1.00
2019-06-07T17:50:26.045Z,0.90
2019-06-07T17:52:55.312Z,0.93
2019-06-07T17:55:24.580Z,1.00
2019-06-07T17:57:53.861Z,0.90
2019-06-07T18:00:29.047Z,0.77
2019-06-07T18:02:55.944Z,0.80
2019-06-07T18:05:25.215Z,0.87
2019-06-07T18:07:55.528Z,0.90
2019-06-07T18:10:35.526Z,0.70
2019-06-07T18:13:05.635Z,0.80
2019-06-07T18:15:52.879Z,0.80
2019-06-07T18:18:19.611Z,0.70
2019-06-07T18:20:49.342Z,0.90
2019-06-07T18:23:18.705Z,0.73
2019-06-07T18:25:48.449Z,0.80
2019-06-07T18:28:17.832Z,0.90
2019-06-07T18:30:47.096Z,0.90
2019-06-07T18:33:16.372Z,0.70
2019-06-07T18:35:46.880Z,0.60
2019-06-07T18:38:16.402Z,0.60
2019-06-07T18:40:46.977Z,0.80
2019-06-07T18:43:16.410Z,0.90
2019-06-07T18:45:47.201Z,0.60
2019-06-07T18:48:16.721Z,0.67
2019-06-07T18:50:46.522Z,0.60
2019-06-07T18:53:15.870Z,0.60
2019-06-07T18:55:45.113Z,0.50
2019-06-07T18:58:14.391Z,0.70
2019-06-07T19:00:43.939Z,0.60
2019-06-07T19:03:13.215Z,0.60
2019-06-07T19:05:42.743Z,0.50
2019-06-07T19:08:12.349Z,0.60
2019-06-07T19:10:41.630Z,0.60
2019-06-07T19:13:10.903Z,0.53
2019-06-07T19:15:43.207Z,0.67
2019-06-07T19:18:11.215Z,0.60
2019-06-07T19:20:40.550Z,0.60
2019-06-07T19:23:09.836Z,0.60
2019-06-07T19:25:39.097Z,0.50
2019-06-07T19:28:08.372Z,0.60
2019-06-07T19:30:37.635Z,0.50
2019-06-07T19:33:06.984Z,0.70
2019-06-07T19:35:36.254Z,0.50
2019-06-07T19:38:05.672Z,0.50
2019-06-07T19:40:35.206Z,0.60
2019-06-07T19:43:04.747Z,0.40
2019-06-07T19:45:34.268Z,0.50
2019-06-07T19:48:03.552Z,0.70
2019-06-07T19:50:32.805Z,0.50
2019-06-07T19:53:03.948Z,0.40
2019-06-07T19:55:33.367Z,0.67
2019-06-07T19:58:03.854Z,0.67
2019-06-07T20:00:33.565Z,0.60
2019-06-07T20:03:04.329Z,0.60
2019-06-07T20:05:34.243Z,0.60
2019-06-07T20:08:04.921Z,0.60
2019-06-07T20:10:34.320Z,0.60
2019-06-07T20:13:05.002Z,0.60
2019-06-07T20:15:34.630Z,0.60
2019-06-07T20:18:03.890Z,0.60
2019-06-07T20:20:33.160Z,0.80
2019-06-07T20:23:03.015Z,0.50
2019-06-07T20:25:32.381Z,0.60
2019-06-07T20:28:01.650Z,0.60
2019-06-07T20:30:30.912Z,0.50
2019-06-07T20:33:01.718Z,0.80
2019-06-07T20:35:31.130Z,0.60
2019-06-07T20:38:01.094Z,0.53
2019-06-07T20:40:30.452Z,0.50
2019-06-07T20:42:59.720Z,0.50
2019-06-07T20:45:33.506Z,0.60
2019-06-07T20:48:00.061Z,0.70
2019-06-07T20:50:29.340Z,0.80
2019-06-07T20:52:59.843Z,0.70
2019-06-07T20:55:29.625Z,0.80
2019-06-07T20:57:59.121Z,0.70
2019-06-07T21:00:28.355Z,0.70
2019-06-07T21:02:58.887Z,0.90
2019-06-07T21:05:28.273Z,0.90
2019-06-07T21:07:57.663Z,0.80
2019-06-07T21:10:26.881Z,0.70
2019-06-07T21:12:56.147Z,0.73
2019-06-07T21:15:25.421Z,0.60
2019-06-07T21:17:54.689Z,0.70
2019-06-07T21:20:24.005Z,0.73
2019-06-07T21:22:53.311Z,0.60
2019-06-07T21:25:22.648Z,0.60
2019-06-07T21:27:52.228Z,0.67
2019-06-07T21:30:21.837Z,0.80
2019-06-07T21:32:51.105Z,0.70
2019-06-07T21:35:20.647Z,0.80
2019-06-07T21:37:49.912Z,1.13
2019-06-07T21:40:19.671Z,0.80
2019-06-07T21:42:49.264Z,0.70
2019-06-07T21:45:18.531Z,0.87
2019-06-07T21:47:48.013Z,0.73
2019-06-07T21:50:17.395Z,0.70
2019-06-07T21:52:46.977Z,0.70
2019-06-07T21:55:16.310Z,0.70
2019-06-07T21:57:45.643Z,0.80
2019-06-07T22:00:31.173Z,0.53
2019-06-07T22:03:00.768Z,0.60
2019-06-07T22:05:30.049Z,0.60
2019-06-07T22:07:59.317Z,0.70
2019-06-07T22:10:28.593Z,0.80
2019-06-07T22:12:57.863Z,0.60
2019-06-07T22:15:34.193Z,0.60
2019-06-07T22:17:58.210Z,0.80
2019-06-07T22:20:27.820Z,0.70
2019-06-07T22:22:57.427Z,0.60
2019-06-07T22:25:26.946Z,0.80
2019-06-07T22:27:56.460Z,0.60
2019-06-07T22:30:25.733Z,0.80
2019-06-07T22:32:55.011Z,0.80
2019-06-07T22:35:24.549Z,0.80
2019-06-07T22:37:54.169Z,0.70
2019-06-07T22:40:23.440Z,0.80
2019-06-07T22:42:52.715Z,0.70
2019-06-07T22:45:21.995Z,0.90
2019-06-07T22:47:51.268Z,0.80
2019-06-07T22:50:20.816Z,0.60
2019-06-07T22:52:50.086Z,0.83
2019-06-07T22:55:19.829Z,0.70
2019-06-07T22:57:56.622Z,0.70
2019-06-07T23:00:27.545Z,0.73
2019-06-07T23:02:56.967Z,0.80
2019-06-07T23:05:26.271Z,0.73
2019-06-07T23:07:55.520Z,0.60
2019-06-07T23:10:24.792Z,0.60
2019-06-07T23:12:54.077Z,0.60
2019-06-07T23:15:23.701Z,0.70
2019-06-07T23:17:52.972Z,0.60
2019-06-07T23:20:22.313Z,0.60
2019-06-07T23:22:51.587Z,0.63
2019-06-07T23:25:24.340Z,0.60
2019-06-07T23:27:51.858Z,0.73
2019-06-07T23:30:22.533Z,0.70
2019-06-07T23:32:51.831Z,0.70
2019-06-07T23:35:21.309Z,0.73
2019-06-07T23:37:50.623Z,0.63
2019-06-07T23:40:21.436Z,0.70
2019-06-07T23:42:50.824Z,0.60
2019-06-07T23:45:21.590Z,0.70
2019-06-07T23:47:51.266Z,0.87
2019-06-07T23:50:21.763Z,0.80
2019-06-07T23:52:51.501Z,0.60
2019-06-07T23:55:22.289Z,0.80
2019-06-07T23:57:51.956Z,0.60
